sensor_id;sensor_type;location;lat;lon;timestamp;P1;durP1;ratioP1;P2;durP2;ratioP2
29548;SDS011;16487;53.094;8.800;2022-09-09T00:02:15;23.73;;;21.10;;
29548;SDS011;16487;53.094;8.800;2022-09-09T00:04:47;29.97;;;23.23;;
29548;SDS011;16487;53.094;8.800;2022-09-09T00:07:25;29.17;;;23.77;;
29548;SDS011;16487;53.094;8.800;2022-09-09T00:10:05;30.00;;;24.17;;
29548;SDS011;16487;53.094;8.800;2022-09-09T00:12:46;29.97;;;24.37;;
29548;SDS011;16487;53.094;8.800;2022-09-09T00:15:22;31.13;;;25.40;;
29548;SDS011;16487;53.094;8.800;2022-09-09T00:17:52;31.83;;;25.80;;
29548;SDS011;16487;53.094;8.800;2022-09-09T00:20:26;36.60;;;28.13;;
29548;SDS011;16487;53.094;8.800;2022-09-09T00:22:59;38.47;;;31.83;;
29548;SDS011;16487;53.094;8.800;2022-09-09T00:25:34;37.40;;;28.27;;
29548;SDS011;16487;53.094;8.800;2022-09-09T00:28:13;39.37;;;30.40;;
29548;SDS011;16487;53.094;8.800;2022-09-09T00:30:44;42.47;;;31.57;;
29548;SDS011;16487;53.094;8.800;2022-09-09T00:33:13;40.80;;;30.70;;
29548;SDS011;16487;53.094;8.800;2022-09-09T00:35:44;38.63;;;29.57;;
29548;SDS011;16487;53.094;8.800;2022-09-09T00:38:14;42.67;;;30.63;;
29548;SDS011;16487;53.094;8.800;2022-09-09T00:40:45;37.07;;;29.10;;
29548;SDS011;16487;53.094;8.800;2022-09-09T00:43:28;37.10;;;27.87;;
29548;SDS011;16487;53.094;8.800;2022-09-09T00:46:05;36.60;;;27.83;;
29548;SDS011;16487;53.094;8.800;2022-09-09T00:48:55;35.30;;;28.13;;
29548;SDS011;16487;53.094;8.800;2022-09-09T00:51:32;38.27;;;28.83;;
29548;SDS011;16487;53.094;8.800;2022-09-09T00:54:13;35.67;;;28.57;;
29548;SDS011;16487;53.094;8.800;2022-09-09T00:56:53;38.73;;;28.33;;
29548;SDS011;16487;53.094;8.800;2022-09-09T00:59:35;35.33;;;28.13;;
29548;SDS011;16487;53.094;8.800;2022-09-09T01:02:13;38.43;;;29.33;;
29548;SDS011;16487;53.094;8.800;2022-09-09T01:04:48;36.83;;;28.67;;
29548;SDS011;16487;53.094;8.800;2022-09-09T01:07:16;34.60;;;28.57;;
29548;SDS011;16487;53.094;8.800;2022-09-09T01:09:50;31.83;;;26.87;;
29548;SDS011;16487;53.094;8.800;2022-09-09T01:12:25;32.60;;;27.67;;
29548;SDS011;16487;53.094;8.800;2022-09-09T01:15:00;39.47;;;28.60;;
29548;SDS011;16487;53.094;8.800;2022-09-09T01:17:44;32.80;;;27.00;;
29548;SDS011;16487;53.094;8.800;2022-09-09T01:20:17;35.50;;;26.40;;
29548;SDS011;16487;53.094;8.800;2022-09-09T01:22:58;31.27;;;26.17;;
29548;SDS011;16487;53.094;8.800;2022-09-09T01:26:04;32.30;;;24.80;;
29548;SDS011;16487;53.094;8.800;2022-09-09T01:28:39;31.70;;;24.30;;
29548;SDS011;16487;53.094;8.800;2022-09-09T01:31:15;29.93;;;24.17;;
29548;SDS011;16487;53.094;8.800;2022-09-09T01:33:47;28.10;;;24.17;;
29548;SDS011;16487;53.094;8.800;2022-09-09T01:36:17;31.00;;;25.03;;
29548;SDS011;16487;53.094;8.800;2022-09-09T01:38:51;33.13;;;26.53;;
29548;SDS011;16487;53.094;8.800;2022-09-09T01:41:21;29.70;;;24.50;;
29548;SDS011;16487;53.094;8.800;2022-09-09T01:43:57;26.70;;;23.80;;
29548;SDS011;16487;53.094;8.800;2022-09-09T01:46:25;25.43;;;22.83;;
29548;SDS011;16487;53.094;8.800;2022-09-09T01:48:56;28.27;;;22.20;;
29548;SDS011;16487;53.094;8.800;2022-09-09T01:51:26;27.20;;;23.60;;
29548;SDS011;16487;53.094;8.800;2022-09-09T01:53:55;27.40;;;23.33;;
29548;SDS011;16487;53.094;8.800;2022-09-09T01:56:28;25.47;;;21.73;;
29548;SDS011;16487;53.094;8.800;2022-09-09T01:59:14;28.10;;;23.40;;
29548;SDS011;16487;53.094;8.800;2022-09-09T02:01:58;24.63;;;21.20;;
29548;SDS011;16487;53.094;8.800;2022-09-09T02:04:39;28.87;;;22.67;;
29548;SDS011;16487;53.094;8.800;2022-09-09T02:07:17;27.13;;;21.27;;
29548;SDS011;16487;53.094;8.800;2022-09-09T02:09:56;29.30;;;20.43;;
29548;SDS011;16487;53.094;8.800;2022-09-09T02:12:30;24.57;;;21.70;;
29548;SDS011;16487;53.094;8.800;2022-09-09T02:15:02;29.10;;;22.10;;
29548;SDS011;16487;53.094;8.800;2022-09-09T02:17:44;25.00;;;20.73;;
29548;SDS011;16487;53.094;8.800;2022-09-09T02:20:16;25.80;;;20.70;;
29548;SDS011;16487;53.094;8.800;2022-09-09T02:22:55;24.30;;;21.27;;
29548;SDS011;16487;53.094;8.800;2022-09-09T02:25:26;25.67;;;21.13;;
29548;SDS011;16487;53.094;8.800;2022-09-09T02:28:03;25.67;;;19.60;;
29548;SDS011;16487;53.094;8.800;2022-09-09T02:30:35;25.27;;;21.10;;
29548;SDS011;16487;53.094;8.800;2022-09-09T02:33:05;24.50;;;20.77;;
29548;SDS011;16487;53.094;8.800;2022-09-09T02:35:42;22.10;;;19.80;;
29548;SDS011;16487;53.094;8.800;2022-09-09T02:38:13;22.93;;;20.53;;
29548;SDS011;16487;53.094;8.800;2022-09-09T02:40:54;24.87;;;19.20;;
29548;SDS011;16487;53.094;8.800;2022-09-09T02:43:23;23.37;;;20.90;;
29548;SDS011;16487;53.094;8.800;2022-09-09T02:45:52;23.30;;;20.97;;
29548;SDS011;16487;53.094;8.800;2022-09-09T02:48:29;21.90;;;19.57;;
29548;SDS011;16487;53.094;8.800;2022-09-09T02:51:00;22.80;;;19.93;;
29548;SDS011;16487;53.094;8.800;2022-09-09T02:53:37;24.27;;;19.70;;
29548;SDS011;16487;53.094;8.800;2022-09-09T02:56:12;21.67;;;19.37;;
29548;SDS011;16487;53.094;8.800;2022-09-09T02:58:44;24.10;;;20.90;;
29548;SDS011;16487;53.094;8.800;2022-09-09T03:01:12;23.93;;;19.67;;
29548;SDS011;16487;53.094;8.800;2022-09-09T03:03:40;21.97;;;19.70;;
29548;SDS011;16487;53.094;8.800;2022-09-09T03:06:12;22.93;;;20.40;;
29548;SDS011;16487;53.094;8.800;2022-09-09T03:08:40;20.27;;;18.17;;
29548;SDS011;16487;53.094;8.800;2022-09-09T03:11:16;22.63;;;18.97;;
29548;SDS011;16487;53.094;8.800;2022-09-09T03:13:45;21.80;;;19.27;;
29548;SDS011;16487;53.094;8.800;2022-09-09T03:16:12;20.90;;;17.40;;
29548;SDS011;16487;53.094;8.800;2022-09-09T03:18:43;19.57;;;17.50;;
29548;SDS011;16487;53.094;8.800;2022-09-09T03:21:10;20.40;;;18.20;;
29548;SDS011;16487;53.094;8.800;2022-09-09T03:23:39;24.40;;;17.00;;
29548;SDS011;16487;53.094;8.800;2022-09-09T03:26:07;19.00;;;17.00;;
29548;SDS011;16487;53.094;8.800;2022-09-09T03:28:40;19.37;;;16.23;;
29548;SDS011;16487;53.094;8.800;2022-09-09T03:31:09;17.27;;;15.50;;
29548;SDS011;16487;53.094;8.800;2022-09-09T03:33:40;18.70;;;16.80;;
29548;SDS011;16487;53.094;8.800;2022-09-09T03:36:09;18.13;;;15.27;;
29548;SDS011;16487;53.094;8.800;2022-09-09T03:38:38;16.23;;;14.63;;
29548;SDS011;16487;53.094;8.800;2022-09-09T03:41:06;19.97;;;13.70;;
29548;SDS011;16487;53.094;8.800;2022-09-09T03:43:34;16.23;;;14.53;;
29548;SDS011;16487;53.094;8.800;2022-09-09T03:46:01;15.50;;;13.90;;
29548;SDS011;16487;53.094;8.800;2022-09-09T03:48:31;14.97;;;13.33;;
29548;SDS011;16487;53.094;8.800;2022-09-09T03:50:59;16.17;;;14.27;;
29548;SDS011;16487;53.094;8.800;2022-09-09T03:53:27;16.03;;;14.30;;
29548;SDS011;16487;53.094;8.800;2022-09-09T03:55:56;14.23;;;12.67;;
29548;SDS011;16487;53.094;8.800;2022-09-09T03:58:25;14.30;;;12.90;;
29548;SDS011;16487;53.094;8.800;2022-09-09T04:00:58;14.60;;;13.20;;
29548;SDS011;16487;53.094;8.800;2022-09-09T04:03:27;15.07;;;13.47;;
29548;SDS011;16487;53.094;8.800;2022-09-09T04:05:57;14.50;;;12.97;;
29548;SDS011;16487;53.094;8.800;2022-09-09T04:08:28;14.10;;;12.67;;
29548;SDS011;16487;53.094;8.800;2022-09-09T04:10:56;15.17;;;12.00;;
29548;SDS011;16487;53.094;8.800;2022-09-09T04:13:25;14.20;;;12.90;;
29548;SDS011;16487;53.094;8.800;2022-09-09T04:15:53;13.50;;;12.10;;
29548;SDS011;16487;53.094;8.800;2022-09-09T04:18:22;15.13;;;13.57;;
29548;SDS011;16487;53.094;8.800;2022-09-09T04:20:50;13.63;;;12.13;;
29548;SDS011;16487;53.094;8.800;2022-09-09T04:23:23;15.00;;;12.40;;
29548;SDS011;16487;53.094;8.800;2022-09-09T04:25:52;13.73;;;11.90;;
29548;SDS011;16487;53.094;8.800;2022-09-09T04:28:22;15.17;;;12.43;;
29548;SDS011;16487;53.094;8.800;2022-09-09T04:30:51;12.83;;;11.43;;
29548;SDS011;16487;53.094;8.800;2022-09-09T04:33:18;13.13;;;11.60;;
29548;SDS011;16487;53.094;8.800;2022-09-09T04:35:48;12.70;;;11.37;;
29548;SDS011;16487;53.094;8.800;2022-09-09T04:38:18;11.73;;;10.47;;
29548;SDS011;16487;53.094;8.800;2022-09-09T04:40:47;12.30;;;11.10;;
29548;SDS011;16487;53.094;8.800;2022-09-09T04:43:14;11.77;;;10.70;;
29548;SDS011;16487;53.094;8.800;2022-09-09T04:45:43;12.67;;;11.40;;
29548;SDS011;16487;53.094;8.800;2022-09-09T04:48:14;12.17;;;10.90;;
29548;SDS011;16487;53.094;8.800;2022-09-09T04:50:41;13.20;;;10.73;;
29548;SDS011;16487;53.094;8.800;2022-09-09T04:53:11;14.60;;;12.20;;
29548;SDS011;16487;53.094;8.800;2022-09-09T04:55:38;11.73;;;9.87;;
29548;SDS011;16487;53.094;8.800;2022-09-09T04:58:08;12.20;;;11.00;;
29548;SDS011;16487;53.094;8.800;2022-09-09T05:00:35;11.17;;;9.80;;
29548;SDS011;16487;53.094;8.800;2022-09-09T05:03:06;14.47;;;10.20;;
29548;SDS011;16487;53.094;8.800;2022-09-09T05:05:33;12.27;;;10.20;;
29548;SDS011;16487;53.094;8.800;2022-09-09T05:08:02;10.77;;;9.70;;
29548;SDS011;16487;53.094;8.800;2022-09-09T05:10:30;9.50;;;8.60;;
29548;SDS011;16487;53.094;8.800;2022-09-09T05:12:58;11.33;;;9.17;;
29548;SDS011;16487;53.094;8.800;2022-09-09T05:15:30;12.37;;;11.10;;
29548;SDS011;16487;53.094;8.800;2022-09-09T05:17:57;13.63;;;8.73;;
29548;SDS011;16487;53.094;8.800;2022-09-09T05:20:25;11.20;;;9.57;;
29548;SDS011;16487;53.094;8.800;2022-09-09T05:22:53;9.90;;;9.00;;
29548;SDS011;16487;53.094;8.800;2022-09-09T05:25:21;11.07;;;9.30;;
29548;SDS011;16487;53.094;8.800;2022-09-09T05:27:49;10.40;;;9.10;;
29548;SDS011;16487;53.094;8.800;2022-09-09T05:30:16;13.57;;;8.63;;
29548;SDS011;16487;53.094;8.800;2022-09-09T05:32:46;15.20;;;11.90;;
29548;SDS011;16487;53.094;8.800;2022-09-09T05:35:13;11.17;;;9.27;;
29548;SDS011;16487;53.094;8.800;2022-09-09T05:37:41;11.90;;;9.27;;
29548;SDS011;16487;53.094;8.800;2022-09-09T05:40:09;213.73;;;117.17;;
29548;SDS011;16487;53.094;8.800;2022-09-09T05:42:37;12.10;;;9.10;;
29548;SDS011;16487;53.094;8.800;2022-09-09T05:45:04;9.17;;;8.27;;
29548;SDS011;16487;53.094;8.800;2022-09-09T05:47:32;9.93;;;8.93;;
29548;SDS011;16487;53.094;8.800;2022-09-09T05:50:01;16.93;;;12.43;;
29548;SDS011;16487;53.094;8.800;2022-09-09T05:52:29;13.83;;;9.80;;
29548;SDS011;16487;53.094;8.800;2022-09-09T05:54:57;14.10;;;9.03;;
29548;SDS011;16487;53.094;8.800;2022-09-09T05:57:25;11.33;;;9.00;;
29548;SDS011;16487;53.094;8.800;2022-09-09T05:59:52;10.23;;;9.20;;
29548;SDS011;16487;53.094;8.800;2022-09-09T06:02:19;10.40;;;9.40;;
29548;SDS011;16487;53.094;8.800;2022-09-09T06:04:47;9.90;;;8.73;;
29548;SDS011;16487;53.094;8.800;2022-09-09T06:07:15;10.53;;;9.50;;
29548;SDS011;16487;53.094;8.800;2022-09-09T06:09:42;9.93;;;9.00;;
29548;SDS011;16487;53.094;8.800;2022-09-09T06:12:11;9.70;;;8.77;;
29548;SDS011;16487;53.094;8.800;2022-09-09T06:14:39;10.00;;;9.00;;
29548;SDS011;16487;53.094;8.800;2022-09-09T06:17:12;10.43;;;8.50;;
29548;SDS011;16487;53.094;8.800;2022-09-09T06:19:39;9.90;;;8.60;;
29548;SDS011;16487;53.094;8.800;2022-09-09T06:22:06;9.63;;;8.40;;
29548;SDS011;16487;53.094;8.800;2022-09-09T06:24:37;11.57;;;10.37;;
29548;SDS011;16487;53.094;8.800;2022-09-09T06:27:06;10.77;;;9.43;;
29548;SDS011;16487;53.094;8.800;2022-09-09T06:29:35;11.80;;;9.23;;
29548;SDS011;16487;53.094;8.800;2022-09-09T06:32:03;9.20;;;8.40;;
29548;SDS011;16487;53.094;8.800;2022-09-09T06:34:30;10.67;;;7.50;;
29548;SDS011;16487;53.094;8.800;2022-09-09T06:36:59;8.00;;;7.13;;
29548;SDS011;16487;53.094;8.800;2022-09-09T06:39:34;10.20;;;8.20;;
29548;SDS011;16487;53.094;8.800;2022-09-09T06:42:03;13.40;;;7.43;;
29548;SDS011;16487;53.094;8.800;2022-09-09T06:44:53;7.60;;;6.90;;
29548;SDS011;16487;53.094;8.800;2022-09-09T06:47:32;6.57;;;5.97;;
29548;SDS011;16487;53.094;8.800;2022-09-09T06:49:59;7.77;;;6.67;;
29548;SDS011;16487;53.094;8.800;2022-09-09T06:52:28;9.67;;;6.77;;
29548;SDS011;16487;53.094;8.800;2022-09-09T06:54:56;8.73;;;7.20;;
29548;SDS011;16487;53.094;8.800;2022-09-09T06:57:25;22.00;;;14.20;;
29548;SDS011;16487;53.094;8.800;2022-09-09T07:00:07;7.77;;;7.17;;
29548;SDS011;16487;53.094;8.800;2022-09-09T07:02:34;9.87;;;8.00;;
29548;SDS011;16487;53.094;8.800;2022-09-09T07:05:02;8.57;;;7.60;;
29548;SDS011;16487;53.094;8.800;2022-09-09T07:07:30;14.13;;;9.50;;
29548;SDS011;16487;53.094;8.800;2022-09-09T07:09:57;10.10;;;7.80;;
29548;SDS011;16487;53.094;8.800;2022-09-09T07:12:26;7.07;;;6.30;;
29548;SDS011;16487;53.094;8.800;2022-09-09T07:14:58;8.70;;;7.83;;
29548;SDS011;16487;53.094;8.800;2022-09-09T07:17:25;8.83;;;7.23;;
29548;SDS011;16487;53.094;8.800;2022-09-09T07:19:54;9.60;;;7.73;;
29548;SDS011;16487;53.094;8.800;2022-09-09T07:22:21;7.67;;;6.87;;
29548;SDS011;16487;53.094;8.800;2022-09-09T07:24:48;7.23;;;6.50;;
29548;SDS011;16487;53.094;8.800;2022-09-09T07:27:16;9.53;;;6.07;;
29548;SDS011;16487;53.094;8.800;2022-09-09T07:29:44;7.20;;;6.50;;
29548;SDS011;16487;53.094;8.800;2022-09-09T07:32:12;9.17;;;7.07;;
29548;SDS011;16487;53.094;8.800;2022-09-09T07:34:39;6.87;;;6.17;;
29548;SDS011;16487;53.094;8.800;2022-09-09T07:37:06;7.23;;;6.60;;
29548;SDS011;16487;53.094;8.800;2022-09-09T07:39:35;6.83;;;6.07;;
29548;SDS011;16487;53.094;8.800;2022-09-09T07:42:02;6.30;;;5.80;;
29548;SDS011;16487;53.094;8.800;2022-09-09T07:44:31;7.20;;;6.50;;
29548;SDS011;16487;53.094;8.800;2022-09-09T07:47:06;6.10;;;5.50;;
29548;SDS011;16487;53.094;8.800;2022-09-09T07:49:38;10.40;;;6.10;;
29548;SDS011;16487;53.094;8.800;2022-09-09T07:52:07;8.77;;;6.50;;
29548;SDS011;16487;53.094;8.800;2022-09-09T07:54:35;6.43;;;5.70;;
29548;SDS011;16487;53.094;8.800;2022-09-09T07:57:05;6.47;;;5.70;;
29548;SDS011;16487;53.094;8.800;2022-09-09T07:59:35;6.63;;;5.80;;
29548;SDS011;16487;53.094;8.800;2022-09-09T08:02:03;6.70;;;5.53;;
29548;SDS011;16487;53.094;8.800;2022-09-09T08:04:34;7.37;;;6.67;;
29548;SDS011;16487;53.094;8.800;2022-09-09T08:07:02;7.90;;;5.80;;
29548;SDS011;16487;53.094;8.800;2022-09-09T08:09:35;6.30;;;5.27;;
29548;SDS011;16487;53.094;8.800;2022-09-09T08:12:09;5.20;;;4.70;;
29548;SDS011;16487;53.094;8.800;2022-09-09T08:14:36;6.97;;;6.10;;
29548;SDS011;16487;53.094;8.800;2022-09-09T08:17:03;7.40;;;5.70;;
29548;SDS011;16487;53.094;8.800;2022-09-09T08:19:32;5.63;;;5.10;;
29548;SDS011;16487;53.094;8.800;2022-09-09T08:22:01;13.53;;;6.07;;
29548;SDS011;16487;53.094;8.800;2022-09-09T08:24:30;5.70;;;4.50;;
29548;SDS011;16487;53.094;8.800;2022-09-09T08:26:57;6.27;;;4.67;;
29548;SDS011;16487;53.094;8.800;2022-09-09T08:29:24;6.27;;;5.67;;
29548;SDS011;16487;53.094;8.800;2022-09-09T08:31:53;13.67;;;6.90;;
29548;SDS011;16487;53.094;8.800;2022-09-09T08:34:23;5.20;;;4.63;;
29548;SDS011;16487;53.094;8.800;2022-09-09T08:36:52;4.90;;;4.50;;
29548;SDS011;16487;53.094;8.800;2022-09-09T08:39:26;5.77;;;5.20;;
29548;SDS011;16487;53.094;8.800;2022-09-09T08:42:04;5.90;;;5.03;;
29548;SDS011;16487;53.094;8.800;2022-09-09T08:47:38;5.70;;;5.20;;
29548;SDS011;16487;53.094;8.800;2022-09-09T08:50:16;6.10;;;5.60;;
29548;SDS011;16487;53.094;8.800;2022-09-09T08:52:52;7.80;;;5.00;;
29548;SDS011;16487;53.094;8.800;2022-09-09T08:55:28;6.23;;;5.40;;
29548;SDS011;16487;53.094;8.800;2022-09-09T08:58:09;7.20;;;6.60;;
29548;SDS011;16487;53.094;8.800;2022-09-09T09:00:42;5.50;;;5.00;;
29548;SDS011;16487;53.094;8.800;2022-09-09T09:03:22;5.90;;;5.50;;
29548;SDS011;16487;53.094;8.800;2022-09-09T09:06:01;5.67;;;5.13;;
29548;SDS011;16487;53.094;8.800;2022-09-09T09:08:36;26.13;;;18.03;;
29548;SDS011;16487;53.094;8.800;2022-09-09T09:11:11;7.13;;;6.43;;
29548;SDS011;16487;53.094;8.800;2022-09-09T09:13:40;6.53;;;5.93;;
29548;SDS011;16487;53.094;8.800;2022-09-09T09:16:18;6.93;;;5.60;;
29548;SDS011;16487;53.094;8.800;2022-09-09T09:18:51;6.20;;;5.37;;
29548;SDS011;16487;53.094;8.800;2022-09-09T09:21:20;9.97;;;6.07;;
29548;SDS011;16487;53.094;8.800;2022-09-09T09:23:54;4.33;;;4.13;;
29548;SDS011;16487;53.094;8.800;2022-09-09T09:26:29;4.30;;;3.97;;
29548;SDS011;16487;53.094;8.800;2022-09-09T09:28:59;18.27;;;6.20;;
29548;SDS011;16487;53.094;8.800;2022-09-09T09:31:35;9.40;;;6.60;;
29548;SDS011;16487;53.094;8.800;2022-09-09T09:34:02;5.43;;;3.80;;
29548;SDS011;16487;53.094;8.800;2022-09-09T09:36:33;4.70;;;4.30;;
29548;SDS011;16487;53.094;8.800;2022-09-09T09:39:04;5.87;;;4.70;;
29548;SDS011;16487;53.094;8.800;2022-09-09T09:41:52;5.03;;;4.63;;
29548;SDS011;16487;53.094;8.800;2022-09-09T09:44:24;5.10;;;3.90;;
29548;SDS011;16487;53.094;8.800;2022-09-09T09:47:05;4.37;;;4.03;;
29548;SDS011;16487;53.094;8.800;2022-09-09T09:49:35;3.80;;;3.20;;
29548;SDS011;16487;53.094;8.800;2022-09-09T09:52:02;4.60;;;4.20;;
29548;SDS011;16487;53.094;8.800;2022-09-09T09:54:31;4.70;;;4.30;;
29548;SDS011;16487;53.094;8.800;2022-09-09T09:57:09;5.23;;;4.83;;
29548;SDS011;16487;53.094;8.800;2022-09-09T09:59:40;4.70;;;3.83;;
29548;SDS011;16487;53.094;8.800;2022-09-09T10:02:23;4.40;;;4.03;;
29548;SDS011;16487;53.094;8.800;2022-09-09T10:05:02;5.03;;;3.63;;
29548;SDS011;16487;53.094;8.800;2022-09-09T10:07:34;4.20;;;3.40;;
29548;SDS011;16487;53.094;8.800;2022-09-09T10:10:01;3.80;;;3.20;;
29548;SDS011;16487;53.094;8.800;2022-09-09T10:12:36;5.33;;;3.73;;
29548;SDS011;16487;53.094;8.800;2022-09-09T10:15:21;5.90;;;5.30;;
29548;SDS011;16487;53.094;8.800;2022-09-09T10:17:59;37.17;;;9.43;;
29548;SDS011;16487;53.094;8.800;2022-09-09T10:20:38;4.73;;;4.23;;
29548;SDS011;16487;53.094;8.800;2022-09-09T10:23:13;5.00;;;4.50;;
29548;SDS011;16487;53.094;8.800;2022-09-09T10:25:58;4.83;;;4.40;;
29548;SDS011;16487;53.094;8.800;2022-09-09T10:28:40;4.73;;;4.33;;
29548;SDS011;16487;53.094;8.800;2022-09-09T10:31:22;4.63;;;4.03;;
29548;SDS011;16487;53.094;8.800;2022-09-09T10:33:57;4.67;;;4.37;;
29548;SDS011;16487;53.094;8.800;2022-09-09T10:36:33;5.63;;;5.07;;
29548;SDS011;16487;53.094;8.800;2022-09-09T10:39:06;5.30;;;4.90;;
29548;SDS011;16487;53.094;8.800;2022-09-09T10:41:46;5.83;;;5.10;;
29548;SDS011;16487;53.094;8.800;2022-09-09T10:44:33;5.50;;;5.20;;
29548;SDS011;16487;53.094;8.800;2022-09-09T10:47:35;5.30;;;4.80;;
29548;SDS011;16487;53.094;8.800;2022-09-09T10:50:37;5.80;;;5.17;;
29548;SDS011;16487;53.094;8.800;2022-09-09T10:53:34;5.07;;;4.63;;
29548;SDS011;16487;53.094;8.800;2022-09-09T10:56:06;5.60;;;5.10;;
29548;SDS011;16487;53.094;8.800;2022-09-09T10:58:38;5.23;;;4.73;;
29548;SDS011;16487;53.094;8.800;2022-09-09T11:01:15;6.40;;;4.73;;
29548;SDS011;16487;53.094;8.800;2022-09-09T11:03:49;7.57;;;5.33;;
29548;SDS011;16487;53.094;8.800;2022-09-09T11:06:21;4.67;;;4.27;;
29548;SDS011;16487;53.094;8.800;2022-09-09T11:08:56;4.60;;;4.20;;
29548;SDS011;16487;53.094;8.800;2022-09-09T11:11:29;12.07;;;6.47;;
29548;SDS011;16487;53.094;8.800;2022-09-09T11:14:03;4.83;;;4.43;;
29548;SDS011;16487;53.094;8.800;2022-09-09T11:16:40;4.90;;;4.23;;
29548;SDS011;16487;53.094;8.800;2022-09-09T11:19:14;8.37;;;6.63;;
29548;SDS011;16487;53.094;8.800;2022-09-09T11:21:46;5.17;;;4.67;;
29548;SDS011;16487;53.094;8.800;2022-09-09T11:24:16;5.10;;;3.70;;
29548;SDS011;16487;53.094;8.800;2022-09-09T11:26:49;4.43;;;4.03;;
29548;SDS011;16487;53.094;8.800;2022-09-09T11:32:16;6.67;;;4.07;;
29548;SDS011;16487;53.094;8.800;2022-09-09T11:34:56;4.50;;;4.10;;
29548;SDS011;16487;53.094;8.800;2022-09-09T11:37:52;6.33;;;4.30;;
29548;SDS011;16487;53.094;8.800;2022-09-09T11:40:31;5.40;;;4.10;;
29548;SDS011;16487;53.094;8.800;2022-09-09T11:43:03;5.13;;;4.63;;
29548;SDS011;16487;53.094;8.800;2022-09-09T11:45:33;5.03;;;4.53;;
29548;SDS011;16487;53.094;8.800;2022-09-09T11:48:03;8.30;;;5.47;;
29548;SDS011;16487;53.094;8.800;2022-09-09T11:50:35;5.37;;;4.67;;
29548;SDS011;16487;53.094;8.800;2022-09-09T11:53:05;5.83;;;5.00;;
29548;SDS011;16487;53.094;8.800;2022-09-09T11:55:45;6.50;;;5.87;;
29548;SDS011;16487;53.094;8.800;2022-09-09T11:58:15;5.80;;;5.30;;
29548;SDS011;16487;53.094;8.800;2022-09-09T12:00:45;7.90;;;6.30;;
29548;SDS011;16487;53.094;8.800;2022-09-09T12:06:08;5.00;;;4.53;;
29548;SDS011;16487;53.094;8.800;2022-09-09T12:08:38;6.00;;;5.40;;
29548;SDS011;16487;53.094;8.800;2022-09-09T12:11:09;7.80;;;5.87;;
29548;SDS011;16487;53.094;8.800;2022-09-09T12:13:37;7.30;;;5.00;;
29548;SDS011;16487;53.094;8.800;2022-09-09T12:16:04;6.53;;;5.80;;
29548;SDS011;16487;53.094;8.800;2022-09-09T12:18:34;6.90;;;6.20;;
29548;SDS011;16487;53.094;8.800;2022-09-09T12:21:05;6.03;;;5.43;;
29548;SDS011;16487;53.094;8.800;2022-09-09T12:23:42;13.83;;;7.60;;
29548;SDS011;16487;53.094;8.800;2022-09-09T12:26:21;7.63;;;6.90;;
29548;SDS011;16487;53.094;8.800;2022-09-09T12:28:58;8.73;;;7.90;;
29548;SDS011;16487;53.094;8.800;2022-09-09T12:31:33;11.00;;;10.00;;
29548;SDS011;16487;53.094;8.800;2022-09-09T12:34:14;14.63;;;10.57;;
29548;SDS011;16487;53.094;8.800;2022-09-09T12:36:45;16.00;;;12.73;;
29548;SDS011;16487;53.094;8.800;2022-09-09T12:39:27;11.33;;;10.33;;
29548;SDS011;16487;53.094;8.800;2022-09-09T12:41:59;13.67;;;11.57;;
29548;SDS011;16487;53.094;8.800;2022-09-09T12:44:26;13.00;;;11.90;;
29548;SDS011;16487;53.094;8.800;2022-09-09T12:46:54;12.67;;;11.47;;
29548;SDS011;16487;53.094;8.800;2022-09-09T12:49:26;15.83;;;14.20;;
29548;SDS011;16487;53.094;8.800;2022-09-09T12:51:57;14.47;;;12.97;;
29548;SDS011;16487;53.094;8.800;2022-09-09T12:54:25;11.93;;;11.03;;
29548;SDS011;16487;53.094;8.800;2022-09-09T12:56:52;12.77;;;11.67;;
29548;SDS011;16487;53.094;8.800;2022-09-09T12:59:23;11.97;;;11.17;;
29548;SDS011;16487;53.094;8.800;2022-09-09T13:01:55;10.93;;;9.83;;
29548;SDS011;16487;53.094;8.800;2022-09-09T13:04:23;9.80;;;9.00;;
29548;SDS011;16487;53.094;8.800;2022-09-09T13:06:52;10.07;;;9.27;;
29548;SDS011;16487;53.094;8.800;2022-09-09T13:09:19;8.10;;;7.50;;
29548;SDS011;16487;53.094;8.800;2022-09-09T13:11:47;9.47;;;8.50;;
29548;SDS011;16487;53.094;8.800;2022-09-09T13:14:17;9.93;;;9.00;;
29548;SDS011;16487;53.094;8.800;2022-09-09T13:16:54;10.10;;;9.27;;
29548;SDS011;16487;53.094;8.800;2022-09-09T13:19:24;9.10;;;8.30;;
29548;SDS011;16487;53.094;8.800;2022-09-09T13:21:53;8.90;;;8.10;;
29548;SDS011;16487;53.094;8.800;2022-09-09T13:24:23;7.20;;;6.70;;
29548;SDS011;16487;53.094;8.800;2022-09-09T13:26:54;8.17;;;5.70;;
29548;SDS011;16487;53.094;8.800;2022-09-09T13:29:22;7.57;;;5.37;;
29548;SDS011;16487;53.094;8.800;2022-09-09T13:31:50;6.27;;;5.77;;
29548;SDS011;16487;53.094;8.800;2022-09-09T13:34:26;7.10;;;6.13;;
29548;SDS011;16487;53.094;8.800;2022-09-09T13:36:58;7.03;;;5.43;;
29548;SDS011;16487;53.094;8.800;2022-09-09T13:39:27;7.63;;;5.90;;
29548;SDS011;16487;53.094;8.800;2022-09-09T13:41:55;5.67;;;5.10;;
29548;SDS011;16487;53.094;8.800;2022-09-09T13:44:23;7.50;;;6.07;;
29548;SDS011;16487;53.094;8.800;2022-09-09T13:47:00;8.50;;;6.80;;
29548;SDS011;16487;53.094;8.800;2022-09-09T13:49:36;5.23;;;4.80;;
29548;SDS011;16487;53.094;8.800;2022-09-09T13:52:05;5.67;;;5.13;;
29548;SDS011;16487;53.094;8.800;2022-09-09T13:54:37;6.80;;;6.10;;
29548;SDS011;16487;53.094;8.800;2022-09-09T13:57:04;5.87;;;5.37;;
29548;SDS011;16487;53.094;8.800;2022-09-09T13:59:32;6.03;;;4.83;;
29548;SDS011;16487;53.094;8.800;2022-09-09T14:02:20;5.20;;;4.70;;
29548;SDS011;16487;53.094;8.800;2022-09-09T14:04:47;4.57;;;4.10;;
29548;SDS011;16487;53.094;8.800;2022-09-09T14:07:16;7.33;;;6.07;;
29548;SDS011;16487;53.094;8.800;2022-09-09T14:09:44;5.90;;;5.30;;
29548;SDS011;16487;53.094;8.800;2022-09-09T14:12:12;4.73;;;4.33;;
29548;SDS011;16487;53.094;8.800;2022-09-09T14:14:41;7.03;;;4.67;;
29548;SDS011;16487;53.094;8.800;2022-09-09T14:17:09;5.67;;;5.10;;
29548;SDS011;16487;53.094;8.800;2022-09-09T14:19:36;7.80;;;7.10;;
29548;SDS011;16487;53.094;8.800;2022-09-09T14:22:06;6.40;;;5.67;;
29548;SDS011;16487;53.094;8.800;2022-09-09T14:24:35;7.20;;;6.70;;
29548;SDS011;16487;53.094;8.800;2022-09-09T14:27:02;7.80;;;6.90;;
29548;SDS011;16487;53.094;8.800;2022-09-09T14:29:30;7.17;;;6.57;;
29548;SDS011;16487;53.094;8.800;2022-09-09T14:31:57;7.33;;;6.57;;
29548;SDS011;16487;53.094;8.800;2022-09-09T14:34:24;7.80;;;7.20;;
29548;SDS011;16487;53.094;8.800;2022-09-09T14:36:52;7.63;;;6.83;;
29548;SDS011;16487;53.094;8.800;2022-09-09T14:39:19;7.47;;;6.83;;
29548;SDS011;16487;53.094;8.800;2022-09-09T14:41:48;7.57;;;6.87;;
29548;SDS011;16487;53.094;8.800;2022-09-09T14:44:15;8.80;;;7.97;;
29548;SDS011;16487;53.094;8.800;2022-09-09T14:46:42;10.87;;;8.70;;
29548;SDS011;16487;53.094;8.800;2022-09-09T14:49:09;9.87;;;8.33;;
29548;SDS011;16487;53.094;8.800;2022-09-09T14:51:37;9.27;;;8.33;;
29548;SDS011;16487;53.094;8.800;2022-09-09T14:54:04;8.97;;;8.30;;
29548;SDS011;16487;53.094;8.800;2022-09-09T14:56:32;17.83;;;16.13;;
29548;SDS011;16487;53.094;8.800;2022-09-09T14:59:02;11.83;;;10.90;;
29548;SDS011;16487;53.094;8.800;2022-09-09T15:01:30;11.53;;;10.53;;
29548;SDS011;16487;53.094;8.800;2022-09-09T15:03:59;9.30;;;7.80;;
29548;SDS011;16487;53.094;8.800;2022-09-09T15:06:28;10.63;;;8.87;;
29548;SDS011;16487;53.094;8.800;2022-09-09T15:08:57;8.97;;;8.20;;
29548;SDS011;16487;53.094;8.800;2022-09-09T15:11:25;12.17;;;10.90;;
29548;SDS011;16487;53.094;8.800;2022-09-09T15:13:53;17.60;;;13.53;;